• Join FlightAware (Why Join?)
  • Login
  • US Flag 
09:25PM EDT


 

Airport Tracker/Info


-or-


 

Live Flight TrackerFlight Track Log ✈ ASA190 ✈ 02-Mar-2014 ✈ PAFA / FAI - PANC

Flight Track Log - Related Links

Times and Time Zones

All times are in EST time to prevent confusion due to time zone crossing. See the ASA190 flight status page for this flight to view local times or setup timezone preferences in your user account.

Time Position Orientation Groundspeed Altitude Reporting Facility
EST Latitude Longitude Course Direction KTS MPH feet Rate Location/Type
10:11PM 64.7667 -147.9833 214° Southwest 210 242 3,600  Level Anchorage Center
10:12PM 64.7333 -148.1333 243° Southwest 260 299 6,700 3,240 Climbing Anchorage Center
10:13PM 64.7000 -148.3000 245° Southwest 280 322 10,100 2,580 Climbing Anchorage Center
10:14PM 64.6167 -148.3833 203° Southwest 340 391 12,000 2,280 Climbing Anchorage Center
10:15PM 64.5333 -148.4500 199° South 360 414 14,800 2,820 Climbing Anchorage Center
10:16PM 64.3581 -148.8571 214° Southwest  Level FlightAware Approximate
10:16PM 64.4333 -148.5167 196° South 370 426 17,700  Level Anchorage Center
10:17PM 64.3333 -148.6000 200° South 380 437 20,100 2,280 Climbing Anchorage Center
10:18PM 64.2333 -148.6833 200° South 390 449 22,300 2,100 Climbing Anchorage Center
10:19PM 64.1167 -148.7500 194° South 400 460 24,400 1,860 Climbing Anchorage Center
10:20PM 64.0167 -148.8333 200° South 410 472 26,100 1,800 Climbing Anchorage Center
10:21PM 63.9000 -148.9167 197° South 410 472 28,000 1,980 Climbing Anchorage Center
10:22PM 63.8000 -149.0000 200° South 410 472 30,100 1,560 Climbing Anchorage Center
10:23PM 63.6833 -149.0833 198° South 420 483 31,200 1,440 Climbing Anchorage Center
10:24PM 63.5667 -149.1667 198° South 420 483 33,000 840 Climbing Anchorage Center
10:25PM 63.4500 -149.2500 198° South 420 483 33,000  Level Anchorage Center
10:26PM 63.3500 -149.3167 197° South 410 472 33,000  Level Anchorage Center
10:27PM 63.2667 -149.4833 222° Southwest 400 460 33,000  Level Anchorage Center
10:28PM 63.1667 -149.6500 217° Southwest 420 483 33,000  Level Anchorage Center
10:29PM 63.0833 -149.8000 219° Southwest 420 483 33,000 -480 Level Anchorage Center
10:30PM 62.9833 -149.9667 217° Southwest 420 483 32,100 -1,140 Descending Anchorage Center
10:31PM 62.9000 -150.1167 219° Southwest 410 472 30,800 -1,440 Descending Anchorage Center
10:32PM 62.8000 -150.2833 217° Southwest 410 472 29,300 -1,440 Descending Anchorage Center
10:33PM 62.7167 -150.4500 223° Southwest 410 472 27,900 -1,440 Descending Anchorage Center
10:34PM 62.6167 -150.6000 215° Southwest 410 472 26,400 -1,500 Descending Anchorage Center
10:35PM 62.5333 -150.7500 220° Southwest 420 483 25,000 -1,500 Descending Anchorage Center
10:36PM 62.4167 -150.8333 198° South 420 483 23,400 -1,320 Descending Anchorage Center
10:37PM 62.3000 -150.7833 169° South 410 472 22,400 -1,440 Descending Anchorage Center
10:38PM 62.2000 -150.7333 167° South 400 460 20,600 -1,860 Descending Anchorage Center
10:39PM 62.1000 -150.6833 167° South 380 437 18,700 -2,220 Descending Anchorage Center
10:40PM 62.0000 -150.6167 163° South 370 426 16,200 -2,520 Descending Anchorage Center
10:42PM 61.8645 -150.5521 167° South  Level FlightAware Approximate
10:49PM 61.2337 -150.0503 159° South  Level FlightAware Approximate
10:50PM 61.1741 -149.9982 154° Southeast  Level Estimated
10:51PM 61.1741 -149.9982 154° Southeast  Level Estimated
10:52PM 61.1741 -149.9982 154° Southeast  Level Estimated
10:53PM 61.1741 -149.9982 154° Southeast  Level Estimated
10:54PM 61.1741 -149.9982 154° Southeast  Level Estimated
10:55PM 61.1741 -149.9982 154° Southeast  Level Estimated
10:56PM 61.1741 -149.9982 154° Southeast  Level Estimated
10:57PM 61.1741 -149.9982 154° Southeast  Level Estimated
10:58PM 61.1741 -149.9982 154° Southeast  Level Estimated
10:59PM 61.1741 -149.9982 154° Southeast  Level Estimated
11:00PM 61.1741 -149.9982 154° Southeast  Level Estimated
11:01PM 61.1741 -149.9982 154° Southeast  Level Estimated
11:02PM 61.1741 -149.9982 154° Southeast  Level Estimated